Time;durP1;ratioP1;P1;durP2;ratioP2;P2;SDS_P1;SDS_P2;PMS_P1;PMS_P2;Temp;Humidity;BMP_temperature;BMP_pressure;BME280_temperature;BME280_humidity;BME280_pressure;Samples;Min_cycle;Max_cycle;Signal;HPM_P1;HPM_P2
2022/03/05 00:02:22;;;;;;;;;;;;;;;;;;5102198;28;19965;-83
2022/03/05 00:04:48;;;;;;;;;;;;;;;;;;5103260;28;19964;-82
2022/03/05 00:07:13;;;;;;;;;;;;;;;;;;5104082;28;19916;-82
2022/03/05 00:09:38;;;;;;;;;;;;;;;;;;5104432;28;19916;-82
2022/03/05 00:12:04;;;;;;;;;;;;;;;;;;5103190;28;19922;-83
2022/03/05 00:14:29;;;;;;;;;;;;;;;;;;5105201;28;19985;-83
2022/03/05 00:16:55;;;;;;;;;;;;;;;;;;5103811;28;19916;-82
2022/03/05 00:19:21;;;;;;;;;;;;;;;;;;5104714;28;20408;-82
2022/03/05 00:21:46;;;;;;;;;;;;;;;;;;5103358;28;19923;-83
2022/03/05 00:24:12;;;;;;;;;;;;;;;;;;5103526;28;20361;-83
2022/03/05 00:26:37;;;;;;;;;;;;;;;;;;5103056;28;19938;-83
2022/03/05 00:29:03;;;;;;;;;;;;;;;;;;5102606;28;19970;-83
2022/03/05 00:31:28;;;;;;;;;;;;;;;;;;5122092;28;19916;-83
2022/03/05 00:33:54;;;;;;;;;;;;;;;;;;5122276;28;19930;-83
2022/03/05 00:36:19;;;;;;;;;;;;;;;;;;5121987;28;19916;-83
2022/03/05 00:38:45;;;;;;;;;;;;;;;;;;5122712;28;20000;-83
2022/03/05 00:41:11;;;;;;;;;;;;;;;;;;5124296;28;19966;-83
2022/03/05 00:43:36;;;;;;;;;;;;;;;;;;5123361;28;19919;-83
2022/03/05 00:46:02;;;;;;;;;;;;;;;;;;5125518;28;19960;-83
2022/03/05 00:48:27;;;;;;;;;;;;;;;;;;5108144;28;19936;-83
2022/03/05 00:50:54;;;;;;;;;;;;;;;;;;5125737;28;20385;-83
2022/03/05 00:53:21;;;;;;;;;;;;;;;;;;5106912;28;19916;-83
2022/03/05 00:55:47;;;;;;;;;;;;;;;;;;5124692;28;19920;-83
2022/03/05 00:58:13;;;;;;;;;;;;;;;;;;5134392;27;19937;-83
2022/03/05 01:00:39;;;;;;;;;;;;;;;;;;5144150;27;19915;-83
2022/03/05 01:03:04;;;;;;;;;;;;;;;;;;5144062;27;19940;-83
2022/03/05 01:05:29;;;;;;;;;;;;;;;;;;5127281;27;19915;-83
2022/03/05 01:07:55;;;;;;;;;;;;;;;;;;5147387;27;19915;-83
2022/03/05 01:10:20;;;;;;;;;;;;;;;;;;5149586;27;20382;-83
2022/03/05 01:12:45;;;;;;;;;;;;;;;;;;5148277;27;19973;-83
2022/03/05 01:15:11;;;;;;;;;;;;;;;;;;5149042;27;19940;-83
2022/03/05 01:17:36;;;;;;;;;;;;;;;;;;5146828;27;20454;-82
2022/03/05 01:20:03;;;;;;;;;;;;;;;;;;5148884;27;19923;-83
2022/03/05 01:22:28;;;;;;;;;;;;;;;;;;5147547;27;19958;-82
2022/03/05 01:24:53;;;;;;;;;;;;;;;;;;5147799;27;19915;-83
2022/03/05 01:27:21;;;;;;;;;;;;;;;;;;5144973;27;20280;-82
2022/03/05 01:29:46;;;;;;;;;;;;;;;;;;5126324;28;19915;-83
2022/03/05 01:32:11;;;;;;;;;;;;;;;;;;5121936;28;19992;-83
2022/03/05 01:34:36;;;;;;;;;;;;;;;;;;5124140;28;19915;-83
2022/03/05 01:37:02;;;;;;;;;;;;;;;;;;5124392;28;20309;-83
2022/03/05 01:39:27;;;;;;;;;;;;;;;;;;5124647;28;19916;-82
2022/03/05 01:41:55;;;;;;;;;;;;;;;;;;5124880;28;19920;-83
2022/03/05 01:44:20;;;;;;;;;;;;;;;;;;5125865;28;19938;-83
2022/03/05 01:46:45;;;;;;;;;;;;;;;;;;5126528;27;19915;-82
2022/03/05 01:49:11;;;;;;;;;;;;;;;;;;5127492;28;19922;-83
2022/03/05 01:51:37;;;;;;;;;;;;;;;;;;5108575;28;19941;-82
2022/03/05 01:54:05;;;;;;;;;;;;;;;;;;5122286;28;21249;-83
2022/03/05 01:56:31;;;;;;;;;;;;;;;;;;5104207;28;19938;-83
2022/03/05 01:58:57;;;;;;;;;;;;;;;;;;5105207;28;19920;-83
2022/03/05 02:01:24;;;;;;;;;;;;;;;;;;5103280;28;19963;-83
2022/03/05 02:03:51;;;;;;;;;;;;;;;;;;5105493;28;19916;-83
2022/03/05 02:06:17;;;;;;;;;;;;;;;;;;5103827;28;19955;-83
2022/03/05 02:08:42;;;;;;;;;;;;;;;;;;5100113;28;19946;-85
2022/03/05 02:11:07;;;;;;;;;;;;;;;;;;5105378;28;19922;-84
2022/03/05 02:13:33;;;;;;;;;;;;;;;;;;5122023;27;19916;-83
2022/03/05 02:15:58;;;;;;;;;;;;;;;;;;5103514;28;19923;-85
2022/03/05 02:18:23;;;;;;;;;;;;;;;;;;5121430;28;19916;-83
2022/03/05 02:20:49;;;;;;;;;;;;;;;;;;5120036;28;19915;-83
2022/03/05 02:23:15;;;;;;;;;;;;;;;;;;5120233;28;19926;-83
2022/03/05 02:25:51;;;;;;;;;;;;;;;;;;5121040;28;20343;-83
2022/03/05 02:28:16;;;;;;;;;;;;;;;;;;5110407;28;19920;-83
2022/03/05 02:30:41;;;;;;;;;;;;;;;;;;5101879;28;19922;-83
2022/03/05 02:33:08;;;;;;;;;;;;;;;;;;5084119;28;19916;-83
2022/03/05 02:35:33;;;;;;;;;;;;;;;;;;5084872;28;20011;-83
2022/03/05 02:37:59;;;;;;;;;;;;;;;;;;5101553;28;19916;-83
2022/03/05 02:40:24;;;;;;;;;;;;;;;;;;5102607;28;19924;-83
2022/03/05 02:42:49;;;;;;;;;;;;;;;;;;5101883;28;20014;-83
2022/03/05 02:45:15;;;;;;;;;;;;;;;;;;5103962;28;19919;-83
2022/03/05 02:47:41;;;;;;;;;;;;;;;;;;5106916;28;19922;-82
2022/03/05 02:50:06;;;;;;;;;;;;;;;;;;5089954;28;19920;-85
2022/03/05 02:52:32;;;;;;;;;;;;;;;;;;5107355;28;19920;-83
2022/03/05 02:54:57;;;;;;;;;;;;;;;;;;5107446;28;19923;-83
2022/03/05 02:57:22;;;;;;;;;;;;;;;;;;5111833;28;19975;-83
2022/03/05 02:59:48;;;;;;;;;;;;;;;;;;5127970;28;19916;-83
2022/03/05 03:02:13;;;;;;;;;;;;;;;;;;5126416;28;19979;-83
2022/03/05 03:04:38;;;;;;;;;;;;;;;;;;5126308;27;19923;-83
2022/03/05 03:07:04;;;;;;;;;;;;;;;;;;5125348;28;19920;-83
2022/03/05 03:09:30;;;;;;;;;;;;;;;;;;5108480;28;20010;-83
2022/03/05 03:11:55;;;;;;;;;;;;;;;;;;5126805;28;19961;-83
2022/03/05 03:14:20;;;;;;;;;;;;;;;;;;5124805;28;19942;-83
2022/03/05 03:16:46;;;;;;;;;;;;;;;;;;5126887;28;19920;-83
2022/03/05 03:19:11;;;;;;;;;;;;;;;;;;5125164;28;19979;-83
2022/03/05 03:21:36;;;;;;;;;;;;;;;;;;5126415;28;19924;-83
2022/03/05 03:24:04;;;;;;;;;;;;;;;;;;5127225;28;20450;-83
2022/03/05 03:26:29;;;;;;;;;;;;;;;;;;5127108;28;19920;-83
2022/03/05 03:28:54;;;;;;;;;;;;;;;;;;5142411;27;19915;-83
2022/03/05 03:31:19;;;;;;;;;;;;;;;;;;5145544;27;19958;-83
2022/03/05 03:33:45;;;;;;;;;;;;;;;;;;5143983;27;19919;-83
2022/03/05 03:36:10;;;;;;;;;;;;;;;;;;5144267;27;20011;-83
2022/03/05 03:38:35;;;;;;;;;;;;;;;;;;5148061;27;19916;-83
2022/03/05 03:41:01;;;;;;;;;;;;;;;;;;5147325;27;19981;-83
2022/03/05 03:43:26;;;;;;;;;;;;;;;;;;5126324;27;20014;-83
2022/03/05 03:45:51;;;;;;;;;;;;;;;;;;5126717;28;19916;-83
2022/03/05 03:48:16;;;;;;;;;;;;;;;;;;5119863;28;19920;-82
2022/03/05 03:50:42;;;;;;;;;;;;;;;;;;5107990;28;19926;-82
2022/03/05 03:53:07;;;;;;;;;;;;;;;;;;5107227;28;19916;-83
2022/03/05 03:55:33;;;;;;;;;;;;;;;;;;5108181;28;19977;-82
2022/03/05 03:57:58;;;;;;;;;;;;;;;;;;5107955;28;19927;-82
2022/03/05 04:00:23;;;;;;;;;;;;;;;;;;5107307;28;19923;-82
2022/03/05 04:02:49;;;;;;;;;;;;;;;;;;5105831;28;19928;-82
2022/03/05 04:05:15;;;;;;;;;;;;;;;;;;5106302;28;19927;-82
2022/03/05 04:10:24;;;;;;;;;;;;;;;;;;5105924;28;20090;-82
2022/03/05 04:12:50;;;;;;;;;;;;;;;;;;5088866;28;20373;-83
2022/03/05 04:15:17;;;;;;;;;;;;;;;;;;5106021;28;19916;-83
2022/03/05 04:17:42;;;;;;;;;;;;;;;;;;5101969;28;19916;-82
2022/03/05 04:20:08;;;;;;;;;;;;;;;;;;5102135;28;19912;-82
2022/03/05 04:22:33;;;;;;;;;;;;;;;;;;5101909;28;19920;-82
2022/03/05 04:24:59;;;;;;;;;;;;;;;;;;5103818;28;19947;-82
2022/03/05 04:27:24;;;;;;;;;;;;;;;;;;5106091;28;19966;-83
2022/03/05 04:29:50;;;;;;;;;;;;;;;;;;5105050;28;20293;-83
2022/03/05 04:32:15;;;;;;;;;;;;;;;;;;5103873;28;20330;-82
2022/03/05 04:34:41;;;;;;;;;;;;;;;;;;5105324;28;19920;-82
2022/03/05 04:37:07;;;;;;;;;;;;;;;;;;5103989;28;20413;-82
2022/03/05 04:39:32;;;;;;;;;;;;;;;;;;5103949;28;19965;-83
2022/03/05 04:41:58;;;;;;;;;;;;;;;;;;5103890;28;20372;-82
2022/03/05 04:44:23;;;;;;;;;;;;;;;;;;5103035;28;19940;-82
2022/03/05 04:46:48;;;;;;;;;;;;;;;;;;5105283;28;20007;-82
2022/03/05 04:49:14;;;;;;;;;;;;;;;;;;5104648;28;19951;-83
2022/03/05 04:51:39;;;;;;;;;;;;;;;;;;5104580;28;19916;-83
2022/03/05 04:54:05;;;;;;;;;;;;;;;;;;5103210;28;19912;-83
2022/03/05 04:56:30;;;;;;;;;;;;;;;;;;5086286;28;19916;-83
2022/03/05 04:58:56;;;;;;;;;;;;;;;;;;5138164;27;20283;-83
2022/03/05 05:01:21;;;;;;;;;;;;;;;;;;5144321;27;19920;-83
2022/03/05 05:03:47;;;;;;;;;;;;;;;;;;5143821;27;19955;-83
2022/03/05 05:06:12;;;;;;;;;;;;;;;;;;5143271;27;19919;-82
2022/03/05 05:08:38;;;;;;;;;;;;;;;;;;5141692;27;19915;-83
2022/03/05 05:11:04;;;;;;;;;;;;;;;;;;5141661;27;19919;-83
2022/03/05 05:13:29;;;;;;;;;;;;;;;;;;5143684;27;19936;-82
2022/03/05 05:15:55;;;;;;;;;;;;;;;;;;5142665;27;19915;-82
2022/03/05 05:18:21;;;;;;;;;;;;;;;;;;5141426;27;19958;-82
2022/03/05 05:20:46;;;;;;;;;;;;;;;;;;5140325;27;19926;-82
2022/03/05 05:23:11;;;;;;;;;;;;;;;;;;5140439;27;19920;-82
2022/03/05 05:25:37;;;;;;;;;;;;;;;;;;5141533;27;20396;-83
2022/03/05 05:28:02;;;;;;;;;;;;;;;;;;5132226;27;19916;-83
2022/03/05 05:30:28;;;;;;;;;;;;;;;;;;5121858;28;19923;-83
2022/03/05 05:32:54;;;;;;;;;;;;;;;;;;5121580;28;19986;-83
2022/03/05 05:35:20;;;;;;;;;;;;;;;;;;5120534;28;19979;-82
2022/03/05 05:37:45;;;;;;;;;;;;;;;;;;5120570;28;19957;-82
2022/03/05 05:40:11;;;;;;;;;;;;;;;;;;5120700;28;19965;-82
2022/03/05 05:42:36;;;;;;;;;;;;;;;;;;5121298;28;19924;-82
2022/03/05 05:45:03;;;;;;;;;;;;;;;;;;5103122;28;20327;-82
2022/03/05 05:47:28;;;;;;;;;;;;;;;;;;5121393;28;19915;-83
2022/03/05 05:49:53;;;;;;;;;;;;;;;;;;5120652;28;20357;-82
2022/03/05 05:52:19;;;;;;;;;;;;;;;;;;5122849;28;19916;-83
2022/03/05 05:54:44;;;;;;;;;;;;;;;;;;5121562;28;19958;-83
2022/03/05 05:57:10;;;;;;;;;;;;;;;;;;5123598;28;19958;-83
2022/03/05 05:59:35;;;;;;;;;;;;;;;;;;5141134;27;19922;-82
2022/03/05 06:02:01;;;;;;;;;;;;;;;;;;5139936;27;20437;-83
2022/03/05 06:04:26;;;;;;;;;;;;;;;;;;5119176;27;20006;-86
2022/03/05 06:06:52;;;;;;;;;;;;;;;;;;5139789;27;20289;-85
2022/03/05 06:09:17;;;;;;;;;;;;;;;;;;5121387;28;20373;-84
2022/03/05 06:11:42;;;;;;;;;;;;;;;;;;5121204;28;19915;-86
2022/03/05 06:14:08;;;;;;;;;;;;;;;;;;5140219;28;19915;-81
2022/03/05 06:16:33;;;;;;;;;;;;;;;;;;5122717;28;19923;-81
2022/03/05 06:18:59;;;;;;;;;;;;;;;;;;5140480;27;20401;-83
2022/03/05 06:21:24;;;;;;;;;;;;;;;;;;5147147;27;19916;-82
2022/03/05 06:23:49;;;;;;;;;;;;;;;;;;5129386;27;19916;-82
2022/03/05 06:26:15;;;;;;;;;;;;;;;;;;5129038;27;19915;-82
2022/03/05 06:28:40;;;;;;;;;;;;;;;;;;5121579;28;19923;-82
2022/03/05 06:31:06;;;;;;;;;;;;;;;;;;5120461;28;19916;-82
2022/03/05 06:33:31;;;;;;;;;;;;;;;;;;5103995;28;20305;-82
2022/03/05 06:35:56;;;;;;;;;;;;;;;;;;5119719;28;19920;-82
2022/03/05 06:38:22;;;;;;;;;;;;;;;;;;5106232;28;20289;-82
2022/03/05 06:40:48;;;;;;;;;;;;;;;;;;5117444;28;19916;-80
2022/03/05 06:43:15;;;;;;;;;;;;;;;;;;5121274;28;19926;-82
2022/03/05 06:45:40;;;;;;;;;;;;;;;;;;5104860;28;19923;-84
2022/03/05 06:48:06;;;;;;;;;;;;;;;;;;5102202;28;20293;-85
2022/03/05 06:50:31;;;;;;;;;;;;;;;;;;5086219;28;19928;-83
2022/03/05 06:52:56;;;;;;;;;;;;;;;;;;5112096;28;19919;-83
2022/03/05 06:55:23;;;;;;;;;;;;;;;;;;5126878;28;19923;-83
2022/03/05 06:57:49;;;;;;;;;;;;;;;;;;5117665;28;19920;-83
2022/03/05 07:00:15;;;;;;;;;;;;;;;;;;5120116;28;19915;-85
2022/03/05 07:02:40;;;;;;;;;;;;;;;;;;5123779;28;19919;-86
2022/03/05 07:05:06;;;;;;;;;;;;;;;;;;5105366;28;19916;-85
2022/03/05 07:07:34;;;;;;;;;;;;;;;;;;5112411;28;19923;-85
2022/03/05 07:10:00;;;;;;;;;;;;;;;;;;5104647;28;19923;-85
2022/03/05 07:12:25;;;;;;;;;;;;;;;;;;5105014;28;19916;-84
2022/03/05 07:14:51;;;;;;;;;;;;;;;;;;5105366;28;20362;-85
2022/03/05 07:17:16;;;;;;;;;;;;;;;;;;5104197;28;19920;-85
2022/03/05 07:19:42;;;;;;;;;;;;;;;;;;5088404;28;19998;-85
2022/03/05 07:22:07;;;;;;;;;;;;;;;;;;5085864;28;19927;-82
2022/03/05 07:24:33;;;;;;;;;;;;;;;;;;5105346;28;20286;-82
2022/03/05 07:26:58;;;;;;;;;;;;;;;;;;5105392;27;19979;-82
2022/03/05 07:29:24;;;;;;;;;;;;;;;;;;5146073;27;20506;-82
2022/03/05 07:31:49;;;;;;;;;;;;;;;;;;5142965;27;19919;-83
2022/03/05 07:34:14;;;;;;;;;;;;;;;;;;5145690;27;19916;-84
2022/03/05 07:36:40;;;;;;;;;;;;;;;;;;5143033;27;19922;-81
2022/03/05 07:39:07;;;;;;;;;;;;;;;;;;5117753;27;19916;-81
2022/03/05 07:41:33;;;;;;;;;;;;;;;;;;5099628;28;19969;-81
2022/03/05 07:43:59;;;;;;;;;;;;;;;;;;5119481;28;19923;-81
2022/03/05 07:46:24;;;;;;;;;;;;;;;;;;5120832;27;19916;-81
2022/03/05 07:48:50;;;;;;;;;;;;;;;;;;5121562;28;19979;-81
2022/03/05 07:51:15;;;;;;;;;;;;;;;;;;5119349;28;19967;-82
2022/03/05 07:53:40;;;;;;;;;;;;;;;;;;5120761;27;20355;-81
2022/03/05 07:56:06;;;;;;;;;;;;;;;;;;5121101;28;19916;-82
2022/03/05 07:58:31;;;;;;;;;;;;;;;;;;5134613;27;19919;-80
2022/03/05 08:00:58;;;;;;;;;;;;;;;;;;5142006;27;19973;-80
2022/03/05 08:03:23;;;;;;;;;;;;;;;;;;5141399;27;19920;-81
2022/03/05 08:05:48;;;;;;;;;;;;;;;;;;5142049;27;19922;-81
2022/03/05 08:08:14;;;;;;;;;;;;;;;;;;5143268;27;20350;-80
2022/03/05 08:10:39;;;;;;;;;;;;;;;;;;5141488;27;19955;-81
2022/03/05 08:13:04;;;;;;;;;;;;;;;;;;5137152;27;20002;-81
2022/03/05 08:15:30;;;;;;;;;;;;;;;;;;5120462;28;20531;-81
2022/03/05 08:17:56;;;;;;;;;;;;;;;;;;5120843;28;20293;-81
2022/03/05 08:20:22;;;;;;;;;;;;;;;;;;5120346;28;19916;-81
2022/03/05 08:22:48;;;;;;;;;;;;;;;;;;5118928;28;19990;-81
2022/03/05 08:25:14;;;;;;;;;;;;;;;;;;5118399;28;20365;-81
2022/03/05 08:27:39;;;;;;;;;;;;;;;;;;5113200;28;19923;-81
2022/03/05 08:30:05;;;;;;;;;;;;;;;;;;5099133;28;19923;-80
2022/03/05 08:32:30;;;;;;;;;;;;;;;;;;5118955;28;19922;-80
2022/03/05 08:34:56;;;;;;;;;;;;;;;;;;5118944;28;19963;-80
2022/03/05 08:37:21;;;;;;;;;;;;;;;;;;5119504;28;19920;-80
2022/03/05 08:39:47;;;;;;;;;;;;;;;;;;5119334;28;19951;-80
2022/03/05 08:42:13;;;;;;;;;;;;;;;;;;5118707;27;20382;-81
2022/03/05 08:44:38;;;;;;;;;;;;;;;;;;5119055;28;19966;-79
2022/03/05 08:47:04;;;;;;;;;;;;;;;;;;5119809;28;19955;-80
2022/03/05 08:49:29;;;;;;;;;;;;;;;;;;5120772;28;19923;-80
2022/03/05 08:51:54;;;;;;;;;;;;;;;;;;5121333;28;20006;-80
2022/03/05 08:54:20;;;;;;;;;;;;;;;;;;5120695;28;19920;-81
2022/03/05 08:56:46;;;;;;;;;;;;;;;;;;5119028;28;19943;-81
2022/03/05 08:59:11;;;;;;;;;;;;;;;;;;5101175;27;20014;-81
2022/03/05 09:01:37;;;;;;;;;;;;;;;;;;5100928;28;19931;-80
2022/03/05 09:04:02;;;;;;;;;;;;;;;;;;5100250;28;19916;-79
2022/03/05 09:06:28;;;;;;;;;;;;;;;;;;5098629;28;19962;-79
2022/03/05 09:08:53;;;;;;;;;;;;;;;;;;5100083;28;19966;-79
2022/03/05 09:11:18;;;;;;;;;;;;;;;;;;5099113;28;19916;-80
2022/03/05 09:13:44;;;;;;;;;;;;;;;;;;5098101;28;19916;-79
2022/03/05 09:16:09;;;;;;;;;;;;;;;;;;5099458;28;19955;-79
2022/03/05 09:18:34;;;;;;;;;;;;;;;;;;5098948;28;20007;-80
2022/03/05 09:21:00;;;;;;;;;;;;;;;;;;5099453;28;19923;-80
2022/03/05 09:23:25;;;;;;;;;;;;;;;;;;5097780;28;19927;-80
2022/03/05 09:25:51;;;;;;;;;;;;;;;;;;5097276;28;19919;-80
2022/03/05 09:28:16;;;;;;;;;;;;;;;;;;5110255;28;19978;-80
2022/03/05 09:30:41;;;;;;;;;;;;;;;;;;5119201;27;19911;-81
2022/03/05 09:33:07;;;;;;;;;;;;;;;;;;5117705;28;19927;-80
2022/03/05 09:35:33;;;;;;;;;;;;;;;;;;5119805;28;19915;-80
2022/03/05 09:37:58;;;;;;;;;;;;;;;;;;5120384;28;19922;-81
2022/03/05 09:40:24;;;;;;;;;;;;;;;;;;5120328;28;19915;-80
2022/03/05 09:42:49;;;;;;;;;;;;;;;;;;5120018;28;20281;-80
2022/03/05 09:45:15;;;;;;;;;;;;;;;;;;5119656;27;19923;-80
2022/03/05 09:47:41;;;;;;;;;;;;;;;;;;5120042;28;19916;-80
2022/03/05 09:50:07;;;;;;;;;;;;;;;;;;5117903;28;19920;-80
2022/03/05 09:52:32;;;;;;;;;;;;;;;;;;5119582;28;20019;-80
2022/03/05 09:54:58;;;;;;;;;;;;;;;;;;5118588;28;19915;-80
2022/03/05 09:57:23;;;;;;;;;;;;;;;;;;5114508;28;19966;-80
2022/03/05 09:59:48;;;;;;;;;;;;;;;;;;5097092;28;20263;-80
2022/03/05 10:02:14;;;;;;;;;;;;;;;;;;5097609;28;20374;-80
2022/03/05 10:04:41;;;;;;;;;;;;;;;;;;5098055;28;19916;-80
2022/03/05 10:07:09;;;;;;;;;;;;;;;;;;5096251;28;19947;-80
2022/03/05 10:09:35;;;;;;;;;;;;;;;;;;5099096;28;19957;-80
2022/03/05 10:12:00;;;;;;;;;;;;;;;;;;5096704;28;19962;-80
2022/03/05 10:14:25;;;;;;;;;;;;;;;;;;5096926;28;19924;-80
2022/03/05 10:16:59;;;;;;;;;;;;;;;;;;5096869;28;19916;-80
2022/03/05 10:19:24;;;;;;;;;;;;;;;;;;5078953;28;19923;-80
2022/03/05 10:22:04;;;;;;;;;;;;;;;;;;5097025;28;19920;-79
2022/03/05 10:24:30;;;;;;;;;;;;;;;;;;5097112;28;19916;-79
2022/03/05 10:26:56;;;;;;;;;;;;;;;;;;5096705;28;20558;-79
2022/03/05 10:29:22;;;;;;;;;;;;;;;;;;5095057;28;19916;-79
